createdAt,value
2023-06-28T00:01:01.978Z,0
2023-06-28T00:02:05.284Z,0
2023-06-28T00:03:08.580Z,0
2023-06-28T00:04:11.850Z,0
2023-06-28T00:05:15.170Z,0
2023-06-28T00:06:17.571Z,0
2023-06-28T00:07:20.754Z,0
2023-06-28T00:08:24.051Z,0
2023-06-28T00:09:27.344Z,0
2023-06-28T00:10:30.634Z,0
2023-06-28T00:11:33.919Z,0
2023-06-28T00:12:37.210Z,0
2023-06-28T00:13:40.497Z,0
2023-06-28T00:14:43.790Z,0
2023-06-28T00:15:47.085Z,0
2023-06-28T00:16:50.390Z,0
2023-06-28T00:17:53.674Z,0
2023-06-28T00:18:56.965Z,0
2023-06-28T00:19:59.268Z,0
2023-06-28T00:21:02.570Z,0
2023-06-28T00:22:05.885Z,0
2023-06-28T00:23:09.143Z,0
2023-06-28T00:24:12.438Z,0
2023-06-28T00:25:15.718Z,0
2023-06-28T00:26:19.053Z,0
2023-06-28T00:27:22.304Z,0
2023-06-28T00:28:25.599Z,0
2023-06-28T00:29:28.898Z,0
2023-06-28T00:30:32.237Z,0
2023-06-28T00:31:35.477Z,0
2023-06-28T00:32:38.780Z,0
2023-06-28T00:33:41.086Z,0
2023-06-28T00:34:44.390Z,0
2023-06-28T00:35:47.670Z,0
2023-06-28T00:36:50.958Z,0
2023-06-28T00:37:54.244Z,0
2023-06-28T00:38:57.518Z,0
2023-06-28T00:40:00.834Z,0
2023-06-28T00:41:04.116Z,0
2023-06-28T00:42:07.402Z,0
2023-06-28T00:43:10.724Z,0
2023-06-28T00:44:13.990Z,0
2023-06-28T00:45:17.300Z,0
2023-06-28T00:46:20.599Z,0
2023-06-28T00:47:22.880Z,0
2023-06-28T00:48:26.200Z,0
2023-06-28T00:49:29.490Z,0
2023-06-28T00:50:32.759Z,0
2023-06-28T00:51:36.050Z,0
2023-06-28T00:52:39.362Z,0
2023-06-28T00:53:42.635Z,0
2023-06-28T00:54:45.933Z,0
2023-06-28T00:55:49.237Z,0
2023-06-28T00:56:52.511Z,0
2023-06-28T00:57:55.797Z,0
2023-06-28T00:58:59.118Z,0
2023-06-28T01:00:02.435Z,0
2023-06-28T01:01:04.714Z,0
2023-06-28T01:02:08.006Z,0
2023-06-28T01:03:11.283Z,0
2023-06-28T01:04:14.588Z,0
2023-06-28T01:05:17.873Z,0
2023-06-28T01:06:21.173Z,0
2023-06-28T01:07:24.470Z,0
2023-06-28T01:08:27.758Z,0
2023-06-28T01:09:31.058Z,0
2023-06-28T01:10:34.300Z,0
2023-06-28T01:11:37.634Z,0
2023-06-28T01:12:40.916Z,0
2023-06-28T01:13:44.209Z,0
2023-06-28T01:14:46.512Z,0
2023-06-28T01:15:49.793Z,0
2023-06-28T01:16:53.103Z,0
2023-06-28T01:17:56.385Z,0
2023-06-28T01:18:59.668Z,0
2023-06-28T01:20:02.970Z,0
2023-06-28T01:21:06.280Z,0
2023-06-28T01:22:09.577Z,0
2023-06-28T01:23:12.843Z,0
2023-06-28T01:24:16.126Z,0
2023-06-28T01:25:19.434Z,0
2023-06-28T01:26:22.746Z,0
2023-06-28T01:27:26.007Z,0
2023-06-28T01:28:28.311Z,0
2023-06-28T01:29:31.600Z,0
2023-06-28T01:30:34.882Z,0
2023-06-28T01:31:38.195Z,0
2023-06-28T01:32:41.474Z,0
2023-06-28T01:33:44.779Z,0
2023-06-28T01:34:48.089Z,0
2023-06-28T01:35:51.388Z,0
2023-06-28T01:36:54.667Z,0
2023-06-28T01:37:57.947Z,0
2023-06-28T01:39:01.233Z,0
2023-06-28T01:40:04.528Z,0
2023-06-28T01:41:07.832Z,0
2023-06-28T01:42:10.128Z,0
2023-06-28T01:43:13.454Z,0
2023-06-28T01:44:16.720Z,0
2023-06-28T01:45:19.998Z,0
2023-06-28T01:46:23.304Z,0
2023-06-28T01:47:25.628Z,0
2023-06-28T01:48:28.912Z,0
2023-06-28T01:49:32.206Z,0
2023-06-28T01:50:35.482Z,0
2023-06-28T01:51:38.779Z,0
2023-06-28T01:52:42.076Z,0
2023-06-28T01:53:45.360Z,0
2023-06-28T01:54:48.633Z,0
2023-06-28T01:55:51.956Z,0
2023-06-28T01:56:55.240Z,0
2023-06-28T01:57:58.507Z,0
2023-06-28T01:59:01.826Z,0
2023-06-28T02:00:05.116Z,0
2023-06-28T02:01:07.454Z,0
2023-06-28T02:02:10.716Z,0
2023-06-28T02:03:13.997Z,0
2023-06-28T02:04:17.283Z,0
2023-06-28T02:05:20.585Z,0
2023-06-28T02:06:23.881Z,0
2023-06-28T02:07:27.165Z,0
2023-06-28T02:08:30.467Z,0
2023-06-28T02:09:33.762Z,0
2023-06-28T02:10:37.031Z,0
2023-06-28T02:11:40.362Z,0
2023-06-28T02:12:43.647Z,0
2023-06-28T02:13:47.206Z,0
2023-06-28T02:14:49.510Z,0
2023-06-28T02:15:52.946Z,0
2023-06-28T02:16:56.162Z,0
2023-06-28T02:17:59.398Z,0
2023-06-28T02:19:02.688Z,0
2023-06-28T02:20:06.005Z,0
2023-06-28T02:21:09.286Z,0
2023-06-28T02:22:12.555Z,0
2023-06-28T02:23:15.846Z,0
2023-06-28T02:24:19.156Z,0
2023-06-28T02:25:22.437Z,0
2023-06-28T02:26:25.789Z,0
2023-06-28T02:27:29.052Z,0
2023-06-28T02:28:31.332Z,0
2023-06-28T02:29:34.664Z,0
2023-06-28T02:30:37.923Z,0
2023-06-28T02:31:41.320Z,0
2023-06-28T02:32:44.606Z,0
2023-06-28T02:33:47.916Z,0
2023-06-28T02:34:51.207Z,0
2023-06-28T02:35:54.513Z,0
2023-06-28T02:36:58.381Z,0
2023-06-28T02:38:01.081Z,0
2023-06-28T02:39:04.369Z,0
2023-06-28T02:40:07.661Z,0
2023-06-28T02:41:10.954Z,0
2023-06-28T02:42:13.256Z,0
2023-06-28T02:43:16.562Z,0
2023-06-28T02:44:19.833Z,0
2023-06-28T02:45:23.145Z,0
2023-06-28T02:46:26.430Z,0
2023-06-28T02:47:29.731Z,0
2023-06-28T02:48:33.015Z,0
2023-06-28T02:49:36.315Z,0
2023-06-28T02:50:39.617Z,0
2023-06-28T02:51:42.882Z,0
2023-06-28T02:52:46.174Z,0
2023-06-28T02:53:49.474Z,0
2023-06-28T02:54:52.763Z,0
2023-06-28T02:55:55.068Z,0
2023-06-28T02:56:58.363Z,0
2023-06-28T02:58:01.652Z,0
2023-06-28T02:59:04.959Z,0
2023-06-28T03:00:08.243Z,0
2023-06-28T03:01:11.526Z,0
2023-06-28T03:02:14.806Z,0
2023-06-28T03:03:18.129Z,0
2023-06-28T03:04:21.403Z,0
2023-06-28T03:05:24.679Z,0
2023-06-28T03:06:27.993Z,0
2023-06-28T03:07:31.290Z,0
2023-06-28T03:08:34.568Z,0
2023-06-28T03:09:36.875Z,0
2023-06-28T03:10:40.161Z,0
2023-06-28T03:11:43.484Z,0
2023-06-28T03:12:46.790Z,0
2023-06-28T03:13:50.041Z,0
2023-06-28T03:14:53.346Z,0
2023-06-28T03:15:56.648Z,0
2023-06-28T03:16:59.924Z,0
2023-06-28T03:18:03.220Z,0
2023-06-28T03:19:06.511Z,0
2023-06-28T03:20:09.803Z,0
2023-06-28T03:21:13.093Z,0
2023-06-28T03:22:16.382Z,0
2023-06-28T03:23:18.681Z,0
2023-06-28T03:24:21.964Z,0
2023-06-28T03:25:25.270Z,0
2023-06-28T03:26:28.573Z,0
2023-06-28T03:27:31.870Z,0
2023-06-28T03:28:35.152Z,0
2023-06-28T03:29:38.447Z,0
2023-06-28T03:30:41.725Z,0
2023-06-28T03:31:45.032Z,0
2023-06-28T03:32:48.331Z,0
2023-06-28T03:33:51.599Z,0
2023-06-28T03:34:54.907Z,0
2023-06-28T03:35:58.186Z,0
2023-06-28T03:37:00.514Z,0
2023-06-28T03:38:03.802Z,0
2023-06-28T03:39:07.089Z,0
2023-06-28T03:40:10.418Z,0
2023-06-28T03:41:13.683Z,0
2023-06-28T03:42:16.977Z,0
2023-06-28T03:43:20.278Z,0
2023-06-28T03:44:23.538Z,0
2023-06-28T03:45:26.829Z,0
2023-06-28T03:46:30.119Z,0
2023-06-28T03:47:33.509Z,0
2023-06-28T03:48:36.723Z,0
2023-06-28T03:49:40.001Z,1
2023-06-28T03:50:42.323Z,1
2023-06-28T03:51:45.611Z,1
2023-06-28T03:52:48.880Z,1
2023-06-28T03:53:52.197Z,1
2023-06-28T03:54:55.473Z,1
2023-06-28T03:55:58.769Z,1
2023-06-28T03:57:02.057Z,1
2023-06-28T03:58:05.347Z,1
2023-06-28T03:59:08.678Z,0
2023-06-28T04:00:12.017Z,1
2023-06-28T04:01:15.239Z,1
2023-06-28T04:02:18.521Z,0
2023-06-28T04:03:21.827Z,1
2023-06-28T04:04:24.114Z,0
2023-06-28T04:05:27.410Z,1
2023-06-28T04:06:30.734Z,1
2023-06-28T04:07:34.000Z,1
2023-06-28T04:08:37.289Z,1
2023-06-28T04:09:40.593Z,1
2023-06-28T04:10:43.879Z,1
2023-06-28T04:11:47.172Z,1
2023-06-28T04:12:50.476Z,1
2023-06-28T04:13:53.755Z,1
2023-06-28T04:14:57.053Z,0
2023-06-28T04:16:00.348Z,0
2023-06-28T04:17:03.625Z,0
2023-06-28T04:18:05.935Z,0
2023-06-28T04:19:09.224Z,0
2023-06-28T04:20:12.520Z,0
2023-06-28T04:21:15.793Z,0
2023-06-28T04:22:19.108Z,0
2023-06-28T04:23:22.407Z,0
2023-06-28T04:24:25.674Z,0
2023-06-28T04:25:28.981Z,0
2023-06-28T04:26:32.275Z,0
2023-06-28T04:27:35.556Z,0
2023-06-28T04:28:38.847Z,0
2023-06-28T04:29:42.163Z,0
2023-06-28T04:30:45.446Z,0
2023-06-28T04:31:47.724Z,0
2023-06-28T04:32:51.043Z,0
2023-06-28T04:33:54.322Z,0
2023-06-28T04:34:57.614Z,0
2023-06-28T04:36:00.917Z,0
2023-06-28T04:37:04.203Z,0
2023-06-28T04:38:07.512Z,4
2023-06-28T04:39:10.804Z,4
2023-06-28T04:40:14.084Z,4
2023-06-28T04:41:17.404Z,4
2023-06-28T04:42:20.675Z,4
2023-06-28T04:43:23.979Z,4
2023-06-28T04:44:27.260Z,4
2023-06-28T04:45:29.688Z,4
2023-06-28T04:46:32.835Z,4
2023-06-28T04:47:36.142Z,4
2023-06-28T04:48:39.437Z,4
2023-06-28T04:49:42.716Z,4
2023-06-28T04:50:46.021Z,4
2023-06-28T04:51:49.324Z,4
2023-06-28T04:52:52.601Z,4
2023-06-28T04:53:55.886Z,4
2023-06-28T04:54:59.197Z,4
2023-06-28T04:56:02.473Z,4
2023-06-28T04:57:05.761Z,4
2023-06-28T04:58:09.074Z,4
2023-06-28T04:59:11.364Z,4
2023-06-28T05:00:14.701Z,4
2023-06-28T05:01:17.956Z,3
2023-06-28T05:02:21.244Z,1
2023-06-28T05:03:24.552Z,1
2023-06-28T05:04:27.835Z,2
2023-06-28T05:05:31.121Z,2
2023-06-28T05:06:34.398Z,2
2023-06-28T05:07:37.718Z,1
2023-06-28T05:08:40.997Z,1
2023-06-28T05:09:44.279Z,1
2023-06-28T05:10:47.589Z,1
2023-06-28T05:11:50.876Z,1
2023-06-28T05:12:53.181Z,0
2023-06-28T05:13:56.488Z,0
2023-06-28T05:14:59.796Z,1
2023-06-28T05:16:03.058Z,1
2023-06-28T05:17:06.353Z,1
2023-06-28T05:18:09.649Z,1
2023-06-28T05:19:11.961Z,1
2023-06-28T05:20:15.255Z,1
2023-06-28T05:21:18.526Z,1
2023-06-28T05:22:21.848Z,1
2023-06-28T05:23:25.128Z,1
2023-06-28T05:24:28.416Z,1
2023-06-28T05:25:31.710Z,1
2023-06-28T05:26:35.008Z,1
2023-06-28T05:27:38.286Z,1
2023-06-28T05:28:41.582Z,1
2023-06-28T05:29:44.893Z,1
2023-06-28T05:30:48.482Z,1
2023-06-28T05:31:51.791Z,1
2023-06-28T05:32:54.080Z,1
2023-06-28T05:33:57.356Z,1
2023-06-28T05:35:00.641Z,1
2023-06-28T05:36:03.949Z,1
2023-06-28T05:37:07.246Z,1
2023-06-28T05:38:10.533Z,1
2023-06-28T05:39:13.832Z,1
2023-06-28T05:40:17.115Z,1
2023-06-28T05:41:20.398Z,1
2023-06-28T05:42:23.684Z,1
2023-06-28T05:43:26.985Z,1
2023-06-28T05:44:30.281Z,1
2023-06-28T05:45:33.571Z,1
2023-06-28T05:46:35.874Z,1
2023-06-28T05:47:39.160Z,1
2023-06-28T05:48:42.599Z,0
2023-06-28T05:49:45.864Z,1
2023-06-28T05:50:49.161Z,1
2023-06-28T05:51:52.460Z,2
2023-06-28T05:52:55.749Z,0
2023-06-28T05:53:59.059Z,1
2023-06-28T05:55:02.324Z,1
2023-06-28T05:56:05.601Z,1
2023-06-28T05:57:08.970Z,1
2023-06-28T05:58:12.209Z,1
2023-06-28T05:59:15.478Z,1
2023-06-28T06:00:17.885Z,1
2023-06-28T06:01:21.096Z,1
2023-06-28T06:02:24.471Z,1
2023-06-28T06:03:27.683Z,1
2023-06-28T06:04:30.957Z,1
2023-06-28T06:05:34.258Z,0
2023-06-28T06:06:37.588Z,1
2023-06-28T06:07:40.878Z,1
2023-06-28T06:08:44.158Z,1
2023-06-28T06:09:47.445Z,1
2023-06-28T06:10:50.720Z,1
2023-06-28T06:11:54.003Z,1
2023-06-28T06:12:57.317Z,1
2023-06-28T06:13:59.612Z,2
2023-06-28T06:15:02.919Z,2
2023-06-28T06:16:06.194Z,1
2023-06-28T06:17:09.509Z,2
2023-06-28T06:18:12.792Z,2
2023-06-28T06:19:16.088Z,2
2023-06-28T06:20:19.357Z,1
2023-06-28T06:21:22.649Z,2
2023-06-28T06:22:25.949Z,1
2023-06-28T06:23:29.236Z,2
2023-06-28T06:24:32.546Z,2
2023-06-28T06:25:35.831Z,2
2023-06-28T06:26:39.125Z,2
2023-06-28T06:27:41.516Z,1
2023-06-28T06:28:44.715Z,1
2023-06-28T06:29:48.018Z,1
2023-06-28T06:30:51.450Z,1
2023-06-28T06:32:57.906Z,1
2023-06-28T06:34:01.195Z,2
2023-06-28T06:35:04.476Z,2
2023-06-28T06:36:07.776Z,2
2023-06-28T06:37:11.074Z,2
2023-06-28T06:38:14.371Z,2
2023-06-28T06:39:17.639Z,2
2023-06-28T06:40:20.943Z,1
2023-06-28T06:41:23.260Z,2
2023-06-28T06:42:26.523Z,2
2023-06-28T06:43:29.840Z,3
2023-06-28T06:44:33.166Z,2
2023-06-28T06:45:36.430Z,1
2023-06-28T06:46:39.756Z,2
2023-06-28T06:47:43.022Z,2
2023-06-28T06:48:46.294Z,1
2023-06-28T06:49:49.573Z,1
2023-06-28T06:50:52.887Z,1
2023-06-28T06:51:56.153Z,3
2023-06-28T06:52:59.483Z,3
2023-06-28T06:54:02.750Z,1
2023-06-28T06:55:05.055Z,2
2023-06-28T06:56:08.362Z,1
2023-06-28T06:57:11.650Z,2
2023-06-28T06:58:14.956Z,2
2023-06-28T06:59:18.239Z,2
2023-06-28T07:00:21.525Z,1
2023-06-28T07:01:24.813Z,0
2023-06-28T07:02:28.093Z,2
2023-06-28T07:03:31.388Z,3
2023-06-28T07:04:34.684Z,2
2023-06-28T07:05:37.973Z,2
2023-06-28T07:06:41.240Z,1
2023-06-28T07:07:44.571Z,3
2023-06-28T07:08:46.881Z,2
2023-06-28T07:09:50.148Z,1
2023-06-28T07:10:53.478Z,2
2023-06-28T07:11:56.811Z,2
2023-06-28T07:13:00.130Z,2
2023-06-28T07:14:03.326Z,2
2023-06-28T07:15:06.604Z,2
2023-06-28T07:16:09.956Z,2
2023-06-28T07:17:13.197Z,3
2023-06-28T07:18:16.503Z,2
2023-06-28T07:19:19.788Z,2
2023-06-28T07:20:23.099Z,2
2023-06-28T07:21:26.373Z,2
2023-06-28T07:22:28.729Z,2
2023-06-28T07:23:32.005Z,2
2023-06-28T07:24:35.261Z,1
2023-06-28T07:25:38.529Z,3
2023-06-28T07:26:41.845Z,3
2023-06-28T07:27:45.132Z,2
2023-06-28T07:28:48.425Z,3
2023-06-28T07:29:51.723Z,2
2023-06-28T07:30:55.046Z,3
2023-06-28T07:31:58.302Z,3
2023-06-28T07:33:01.595Z,2
2023-06-28T07:34:05.009Z,3
2023-06-28T07:35:08.163Z,1
2023-06-28T07:36:10.520Z,1
2023-06-28T07:37:13.805Z,2
2023-06-28T07:38:17.064Z,1
2023-06-28T07:39:20.352Z,1
2023-06-28T07:40:23.637Z,1
2023-06-28T07:41:26.959Z,2
2023-06-28T07:42:30.247Z,2
2023-06-28T07:43:33.523Z,2
2023-06-28T07:44:36.841Z,3
2023-06-28T07:45:40.105Z,3
2023-06-28T07:46:43.422Z,2
2023-06-28T07:47:46.714Z,3
2023-06-28T07:48:49.996Z,2
2023-06-28T07:49:52.284Z,3
2023-06-28T07:50:55.591Z,3
2023-06-28T07:51:58.871Z,2
2023-06-28T07:53:02.163Z,2
2023-06-28T07:54:05.471Z,3
2023-06-28T07:55:08.760Z,2
2023-06-28T07:56:12.038Z,2
2023-06-28T07:57:15.350Z,2
2023-06-28T07:58:18.652Z,3
2023-06-28T07:59:21.933Z,2
2023-06-28T08:00:25.215Z,3
2023-06-28T08:01:28.518Z,3
2023-06-28T08:02:31.795Z,2
2023-06-28T08:03:34.129Z,2
2023-06-28T08:04:37.412Z,2
2023-06-28T08:05:40.706Z,3
2023-06-28T08:06:44.061Z,2
2023-06-28T08:07:47.267Z,4
2023-06-28T08:08:50.563Z,3
2023-06-28T08:09:53.891Z,2
2023-06-28T08:10:57.187Z,2
2023-06-28T08:12:00.442Z,2
2023-06-28T08:13:03.721Z,2
2023-06-28T08:14:07.029Z,3
2023-06-28T08:15:10.314Z,3
2023-06-28T08:16:13.629Z,2
2023-06-28T08:17:15.925Z,2
2023-06-28T08:18:19.216Z,2
2023-06-28T08:19:22.518Z,2
2023-06-28T08:20:25.788Z,2
2023-06-28T08:21:29.257Z,3
2023-06-28T08:22:32.386Z,2
2023-06-28T08:23:35.671Z,3
2023-06-28T08:24:39.007Z,2
2023-06-28T08:25:42.332Z,2
2023-06-28T08:26:45.616Z,2
2023-06-28T08:27:48.843Z,3
2023-06-28T08:28:52.150Z,2
2023-06-28T08:29:55.475Z,3
2023-06-28T08:30:57.770Z,2
2023-06-28T08:32:01.035Z,2
2023-06-28T08:33:04.315Z,2
2023-06-28T08:34:07.636Z,1
2023-06-28T08:35:10.907Z,3
2023-06-28T08:36:14.209Z,3
2023-06-28T08:37:17.488Z,2
2023-06-28T08:38:20.838Z,3
2023-06-28T08:39:24.076Z,2
2023-06-28T08:40:27.361Z,1
2023-06-28T08:41:30.659Z,2
2023-06-28T08:42:33.928Z,1
2023-06-28T08:43:37.233Z,1
2023-06-28T08:44:39.555Z,1
2023-06-28T08:45:42.845Z,2
2023-06-28T08:46:46.125Z,2
2023-06-28T08:47:49.715Z,3
2023-06-28T08:48:53.015Z,2
2023-06-28T08:49:56.361Z,1
2023-06-28T08:50:58.807Z,1
2023-06-28T08:52:02.113Z,2
2023-06-28T08:53:05.232Z,2
2023-06-28T08:54:08.568Z,3
2023-06-28T08:55:11.934Z,4
2023-06-28T08:56:15.107Z,4
2023-06-28T08:57:18.398Z,3
2023-06-28T08:58:21.743Z,4
2023-06-28T08:59:24.986Z,3
2023-06-28T09:00:28.227Z,3
2023-06-28T09:01:31.569Z,2
2023-06-28T09:02:34.845Z,3
2023-06-28T09:03:38.191Z,3
2023-06-28T09:04:40.450Z,3
2023-06-28T09:05:43.846Z,3
2023-06-28T09:06:47.124Z,2
2023-06-28T09:07:50.408Z,3
2023-06-28T09:08:53.736Z,3
2023-06-28T09:09:57.011Z,4
2023-06-28T09:11:00.279Z,4
2023-06-28T09:12:03.609Z,3
2023-06-28T09:13:06.919Z,3
2023-06-28T09:14:10.162Z,4
2023-06-28T09:16:16.780Z,4
2023-06-28T09:17:20.043Z,3
2023-06-28T09:18:22.384Z,3
2023-06-28T09:19:25.676Z,3
2023-06-28T09:20:28.932Z,4
2023-06-28T09:21:32.241Z,3
2023-06-28T09:22:35.527Z,3
2023-06-28T09:23:38.897Z,2
2023-06-28T09:24:42.280Z,3
2023-06-28T09:25:45.411Z,3
2023-06-28T09:26:48.734Z,2
2023-06-28T09:27:51.988Z,3
2023-06-28T09:28:55.293Z,2
2023-06-28T09:29:58.566Z,3
2023-06-28T09:31:01.836Z,2
2023-06-28T09:32:04.172Z,2
2023-06-28T09:33:07.458Z,3
2023-06-28T09:34:10.754Z,3
2023-06-28T09:35:14.077Z,3
2023-06-28T09:36:17.360Z,4
2023-06-28T09:37:20.651Z,3
2023-06-28T09:38:24.058Z,4
2023-06-28T09:39:27.229Z,3
2023-06-28T09:40:30.506Z,2
2023-06-28T09:41:33.787Z,3
2023-06-28T09:42:37.094Z,3
2023-06-28T09:43:40.395Z,3
2023-06-28T09:44:43.674Z,3
2023-06-28T09:45:45.985Z,3
2023-06-28T09:46:49.320Z,3
2023-06-28T09:47:52.552Z,3
2023-06-28T09:48:55.886Z,3
2023-06-28T09:49:59.173Z,3
2023-06-28T09:51:02.489Z,2
2023-06-28T09:52:05.928Z,2
2023-06-28T09:53:09.214Z,2
2023-06-28T09:54:12.328Z,3
2023-06-28T09:55:15.605Z,2
2023-06-28T09:56:18.894Z,4
2023-06-28T09:57:22.377Z,4
2023-06-28T09:58:25.659Z,3
2023-06-28T09:59:27.816Z,3
2023-06-28T10:00:31.096Z,3
2023-06-28T10:01:34.402Z,3
2023-06-28T10:02:37.876Z,3
2023-06-28T10:03:41.189Z,2
2023-06-28T10:04:44.453Z,3
2023-06-28T10:05:47.763Z,3
2023-06-28T10:06:50.867Z,3
2023-06-28T10:07:54.203Z,4
2023-06-28T10:08:57.610Z,4
2023-06-28T10:10:00.878Z,3
2023-06-28T10:11:04.003Z,4
2023-06-28T10:12:07.411Z,5
2023-06-28T10:13:09.680Z,3
2023-06-28T10:14:13.034Z,3
2023-06-28T10:15:16.226Z,4
2023-06-28T10:16:19.651Z,3
2023-06-28T10:17:22.922Z,3
2023-06-28T10:18:26.203Z,4
2023-06-28T10:19:29.500Z,3
2023-06-28T10:20:32.837Z,3
2023-06-28T10:21:36.046Z,3
2023-06-28T10:22:39.286Z,2
2023-06-28T10:23:42.557Z,3
2023-06-28T10:24:45.801Z,3
2023-06-28T10:25:49.272Z,3
2023-06-28T10:26:51.610Z,2
2023-06-28T10:27:54.938Z,5
2023-06-28T10:28:58.079Z,4
2023-06-28T10:30:01.275Z,3
2023-06-28T10:31:04.565Z,4
2023-06-28T10:32:08.055Z,4
2023-06-28T10:33:11.295Z,3
2023-06-28T10:34:14.575Z,4
2023-06-28T10:35:17.847Z,4
2023-06-28T10:36:21.213Z,3
2023-06-28T10:37:24.319Z,2
2023-06-28T10:38:27.604Z,2
2023-06-28T10:39:30.915Z,4
2023-06-28T10:40:33.336Z,4
2023-06-28T10:41:36.709Z,3
2023-06-28T10:42:39.889Z,4
2023-06-28T10:43:43.114Z,3
2023-06-28T10:44:46.424Z,3
2023-06-28T10:45:49.860Z,3
2023-06-28T10:46:52.978Z,4
2023-06-28T10:47:56.267Z,2
2023-06-28T10:48:59.632Z,3
2023-06-28T10:50:02.844Z,3
2023-06-28T10:51:06.143Z,2
2023-06-28T10:52:09.500Z,2
2023-06-28T10:53:12.720Z,4
2023-06-28T10:54:15.082Z,4
2023-06-28T10:55:18.328Z,5
2023-06-28T10:56:21.689Z,5
2023-06-28T10:57:24.921Z,4
2023-06-28T10:58:28.206Z,3
2023-06-28T10:59:31.498Z,3
2023-06-28T11:00:34.816Z,3
2023-06-28T11:01:38.143Z,3
2023-06-28T11:02:41.356Z,3
2023-06-28T11:03:44.690Z,3
2023-06-28T11:04:47.967Z,3
2023-06-28T11:05:51.249Z,4
2023-06-28T11:06:54.530Z,4
2023-06-28T11:07:56.834Z,5
2023-06-28T11:09:00.148Z,4
2023-06-28T11:10:03.424Z,4
2023-06-28T11:11:06.729Z,4
2023-06-28T11:12:10.072Z,4
2023-06-28T11:13:13.305Z,3
2023-06-28T11:14:16.617Z,3
2023-06-28T11:15:19.878Z,4
2023-06-28T11:16:23.216Z,6
2023-06-28T11:17:26.476Z,5
2023-06-28T11:18:29.766Z,4
2023-06-28T11:19:33.095Z,4
2023-06-28T11:20:36.359Z,3
2023-06-28T11:21:38.683Z,3
2023-06-28T11:22:41.922Z,4
2023-06-28T11:23:45.251Z,3
2023-06-28T11:24:48.601Z,3
2023-06-28T11:25:51.834Z,3
2023-06-28T11:26:55.115Z,3
2023-06-28T11:27:58.482Z,3
2023-06-28T11:29:01.720Z,3
2023-06-28T11:30:05.002Z,3
2023-06-28T11:31:08.305Z,3
2023-06-28T11:32:11.609Z,3
2023-06-28T11:33:14.875Z,3
2023-06-28T11:34:18.167Z,5
2023-06-28T11:35:20.481Z,5
2023-06-28T11:36:23.780Z,4
2023-06-28T11:37:27.044Z,4
2023-06-28T11:38:30.355Z,4
2023-06-28T11:39:33.724Z,4
2023-06-28T11:40:36.979Z,4
2023-06-28T11:41:40.236Z,3
2023-06-28T11:42:43.533Z,4
2023-06-28T11:43:46.809Z,4
2023-06-28T11:44:50.079Z,4
2023-06-28T11:45:53.386Z,4
2023-06-28T11:46:56.683Z,4
2023-06-28T11:47:59.987Z,4
2023-06-28T11:49:02.280Z,4
2023-06-28T11:50:05.559Z,5
2023-06-28T11:51:08.861Z,9
2023-06-28T11:52:12.176Z,5
2023-06-28T11:53:15.452Z,6
2023-06-28T11:54:18.726Z,6
2023-06-28T11:55:22.032Z,4
2023-06-28T11:56:25.320Z,4
2023-06-28T11:57:28.620Z,4
2023-06-28T11:58:31.919Z,4
2023-06-28T11:59:35.214Z,4
2023-06-28T12:00:38.493Z,4
2023-06-28T12:01:41.795Z,5
2023-06-28T12:02:44.120Z,5
2023-06-28T12:03:47.385Z,5
2023-06-28T12:04:50.965Z,5
2023-06-28T12:05:54.280Z,5
2023-06-28T12:06:57.555Z,5
2023-06-28T12:08:00.856Z,6
2023-06-28T12:09:04.157Z,6
2023-06-28T12:10:07.452Z,6
2023-06-28T12:11:10.726Z,7
2023-06-28T12:12:14.050Z,9
2023-06-28T12:13:17.329Z,6
2023-06-28T12:14:20.603Z,6
2023-06-28T12:15:23.924Z,6
2023-06-28T12:16:26.242Z,9
2023-06-28T12:17:29.564Z,5
2023-06-28T12:18:32.792Z,4
2023-06-28T12:19:36.089Z,14
2023-06-28T12:20:39.383Z,14
2023-06-28T12:21:42.675Z,4
2023-06-28T12:22:45.991Z,5
2023-06-28T12:23:48.279Z,5
2023-06-28T12:24:51.547Z,15
2023-06-28T12:25:54.851Z,7
2023-06-28T12:26:58.162Z,11
2023-06-28T12:28:01.441Z,15
2023-06-28T12:29:04.721Z,9
2023-06-28T12:30:08.040Z,4
2023-06-28T12:31:11.326Z,4
2023-06-28T12:32:14.602Z,13
2023-06-28T12:33:17.969Z,7
2023-06-28T12:34:21.201Z,5
2023-06-28T12:35:24.483Z,5
2023-06-28T12:36:27.802Z,5
2023-06-28T12:37:30.081Z,15
2023-06-28T12:38:33.460Z,17
2023-06-28T12:39:36.757Z,6
2023-06-28T12:40:39.970Z,16
2023-06-28T12:41:43.242Z,16
2023-06-28T12:42:46.548Z,16
2023-06-28T12:43:49.840Z,17
2023-06-28T12:44:53.130Z,18
2023-06-28T12:45:56.465Z,18
2023-06-28T12:46:59.730Z,5
2023-06-28T12:48:03.011Z,5
2023-06-28T12:49:06.308Z,4
2023-06-28T12:50:09.578Z,4
2023-06-28T12:51:11.879Z,5
2023-06-28T12:52:15.176Z,20
2023-06-28T12:53:18.490Z,20
2023-06-28T12:54:21.757Z,19
2023-06-28T12:55:25.064Z,10
2023-06-28T12:56:28.357Z,11
2023-06-28T12:57:31.661Z,21
2023-06-28T12:58:34.967Z,21
2023-06-28T12:59:38.235Z,21
2023-06-28T13:00:41.520Z,18
2023-06-28T13:01:44.826Z,5
2023-06-28T13:02:48.320Z,8
2023-06-28T13:03:51.656Z,5
2023-06-28T13:04:53.932Z,4
2023-06-28T13:05:57.225Z,4
2023-06-28T13:07:00.531Z,5
2023-06-28T13:08:03.812Z,20
2023-06-28T13:09:07.080Z,19
2023-06-28T13:10:10.397Z,19
2023-06-28T13:11:13.678Z,20
2023-06-28T13:12:16.992Z,8
2023-06-28T13:13:20.263Z,22
2023-06-28T13:14:23.580Z,5
2023-06-28T13:15:26.834Z,4
2023-06-28T13:16:30.145Z,21
2023-06-28T13:17:33.432Z,18
2023-06-28T13:18:35.752Z,24
2023-06-28T13:19:39.032Z,22
2023-06-28T13:21:45.606Z,4
2023-06-28T13:22:48.916Z,23
2023-06-28T13:23:52.236Z,23
2023-06-28T13:24:55.470Z,23
2023-06-28T13:25:58.815Z,23
2023-06-28T13:27:02.160Z,17
2023-06-28T13:28:05.400Z,22
2023-06-28T13:29:08.688Z,8
2023-06-28T13:30:12.004Z,14
2023-06-28T13:31:15.247Z,23
2023-06-28T13:32:17.549Z,15
2023-06-28T13:33:20.850Z,16
2023-06-28T13:34:24.124Z,7
2023-06-28T13:35:27.458Z,21
2023-06-28T13:36:30.737Z,24
2023-06-28T13:37:34.056Z,7
2023-06-28T13:38:37.311Z,4
2023-06-28T13:39:40.593Z,5
2023-06-28T13:40:43.895Z,6
2023-06-28T13:41:47.260Z,5
2023-06-28T13:42:50.536Z,5
2023-06-28T13:43:53.771Z,19
2023-06-28T13:44:57.044Z,24
2023-06-28T13:45:59.371Z,23
2023-06-28T13:47:02.692Z,24
2023-06-28T13:48:06.123Z,25
2023-06-28T13:49:09.417Z,16
2023-06-28T13:50:12.655Z,6
2023-06-28T13:51:15.817Z,24
2023-06-28T13:52:19.124Z,23
2023-06-28T13:53:22.411Z,23
2023-06-28T13:54:25.704Z,24
2023-06-28T13:55:29.001Z,25
2023-06-28T13:56:32.340Z,24
2023-06-28T13:57:35.643Z,25
2023-06-28T13:58:38.869Z,25
2023-06-28T13:59:41.285Z,4
2023-06-28T14:00:44.475Z,3
2023-06-28T14:01:47.751Z,4
2023-06-28T14:02:51.060Z,25
2023-06-28T14:03:54.338Z,25
2023-06-28T14:04:57.638Z,25
2023-06-28T14:06:01.007Z,25
2023-06-28T14:07:04.267Z,15
2023-06-28T14:08:07.521Z,4
2023-06-28T14:09:10.814Z,14
2023-06-28T14:10:14.095Z,25
2023-06-28T14:11:17.402Z,25
2023-06-28T14:12:20.738Z,26
2023-06-28T14:13:23.016Z,25
2023-06-28T14:14:26.274Z,24
2023-06-28T14:15:29.571Z,22
2023-06-28T14:16:32.873Z,3
2023-06-28T14:17:36.172Z,3
2023-06-28T14:18:39.526Z,27
2023-06-28T14:19:42.734Z,28
2023-06-28T14:20:46.051Z,5
2023-06-28T14:21:49.320Z,9
2023-06-28T14:22:52.629Z,10
2023-06-28T14:23:55.879Z,21
2023-06-28T14:24:59.203Z,4
2023-06-28T14:26:02.483Z,23
2023-06-28T14:27:04.809Z,7
2023-06-28T14:28:08.101Z,27
2023-06-28T14:29:11.385Z,27
2023-06-28T14:30:14.679Z,11
2023-06-28T14:31:17.959Z,4
2023-06-28T14:32:21.237Z,4
2023-06-28T14:33:24.551Z,20
2023-06-28T14:34:27.844Z,27
2023-06-28T14:35:31.115Z,27
2023-06-28T14:36:34.424Z,26
2023-06-28T14:37:37.707Z,4
2023-06-28T14:38:40.992Z,7
2023-06-28T14:39:44.316Z,12
2023-06-28T14:40:46.602Z,27
2023-06-28T14:41:49.899Z,27
2023-06-28T14:42:53.187Z,26
2023-06-28T14:43:56.492Z,27
2023-06-28T14:44:59.786Z,6
2023-06-28T14:46:03.079Z,26
2023-06-28T14:47:06.356Z,25
2023-06-28T14:48:09.649Z,26
2023-06-28T14:49:12.947Z,26
2023-06-28T14:50:16.271Z,25
2023-06-28T14:51:19.521Z,26
2023-06-28T14:52:22.811Z,25
2023-06-28T14:53:26.117Z,26
2023-06-28T14:54:28.405Z,25
2023-06-28T14:55:31.715Z,4
2023-06-28T14:56:35.007Z,6
2023-06-28T14:57:38.295Z,27
2023-06-28T14:58:41.587Z,27
2023-06-28T14:59:44.888Z,27
2023-06-28T15:00:48.201Z,19
2023-06-28T15:01:51.475Z,3
2023-06-28T15:02:54.749Z,3
2023-06-28T15:03:58.046Z,4
2023-06-28T15:05:01.352Z,9
2023-06-28T15:06:04.647Z,26
2023-06-28T15:07:07.926Z,6
2023-06-28T15:10:16.799Z,5
2023-06-28T15:11:20.105Z,26
2023-06-28T15:12:23.401Z,25
2023-06-28T15:13:26.707Z,28
2023-06-28T15:14:29.981Z,3
2023-06-28T15:15:33.334Z,4
2023-06-28T15:16:36.564Z,4
2023-06-28T15:17:39.860Z,5
2023-06-28T15:18:43.196Z,25
2023-06-28T15:19:46.451Z,22
2023-06-28T15:20:49.746Z,4
2023-06-28T15:21:52.063Z,3
2023-06-28T15:22:55.318Z,3
2023-06-28T15:23:58.627Z,2
2023-06-28T15:25:01.919Z,2
2023-06-28T15:26:05.204Z,3
2023-06-28T15:27:08.548Z,4
2023-06-28T15:28:11.915Z,5
2023-06-28T15:29:15.103Z,10
2023-06-28T15:30:18.390Z,5
2023-06-28T15:31:21.675Z,4
2023-06-28T15:32:24.995Z,10
2023-06-28T15:33:28.251Z,14
2023-06-28T15:34:31.544Z,23
2023-06-28T15:35:33.859Z,8
2023-06-28T15:36:37.152Z,25